Time;durP1;ratioP1;P1;durP2;ratioP2;P2;SDS_P1;SDS_P2;PMS_P1;PMS_P2;Temp;Humidity;BMP_temperature;BMP_pressure;BME280_temperature;BME280_humidity;BME280_pressure;Samples;Min_cycle;Max_cycle;Signal;HPM_P1;HPM_P2
2022/04/14 00:00:20;;;;;;;1.95;1.30;;;11.40;85.40;;;;;;5113552;28;20039;-70
2022/04/14 00:02:46;;;;;;;2.08;1.27;;;11.30;85.40;;;;;;5094085;28;20048;-71
2022/04/14 00:05:12;;;;;;;1.70;1.20;;;11.40;85.40;;;;;;5114034;28;20104;-71
2022/04/14 00:07:39;;;;;;;1.38;1.00;;;11.30;85.40;;;;;;5113834;28;20087;-71
2022/04/14 00:10:06;;;;;;;1.50;1.08;;;11.40;85.50;;;;;;5113557;28;20040;-71
2022/04/14 00:12:31;;;;;;;1.20;1.02;;;11.30;86.10;;;;;;5113716;28;20032;-71
2022/04/14 00:14:57;;;;;;;1.40;1.10;;;11.30;85.50;;;;;;5113635;28;20431;-70
2022/04/14 00:17:23;;;;;;;1.88;1.25;;;11.20;85.50;;;;;;5113495;28;20036;-71
2022/04/14 00:19:50;;;;;;;1.88;1.20;;;11.30;85.50;;;;;;5094128;28;20489;-71
2022/04/14 00:22:16;;;;;;;1.98;1.23;;;11.20;85.50;;;;;;5113172;28;20047;-71
2022/04/14 00:24:42;;;;;;;1.95;1.30;;;11.20;85.50;;;;;;5113207;28;20040;-71
2022/04/14 00:27:08;;;;;;;2.53;1.35;;;11.20;85.60;;;;;;5113422;28;20493;-71
2022/04/14 00:29:34;;;;;;;2.35;1.30;;;11.20;85.60;;;;;;5113364;28;20036;-70
2022/04/14 00:32:00;;;;;;;2.55;1.73;;;11.20;85.60;;;;;;5113700;28;20140;-71
2022/04/14 00:34:25;;;;;;;2.33;1.45;;;11.20;85.60;;;;;;5095475;28;20437;-70
2022/04/14 00:36:51;;;;;;;2.33;1.50;;;11.10;85.60;;;;;;5112798;28;20031;-70
2022/04/14 00:39:17;;;;;;;2.13;1.48;;;11.20;85.70;;;;;;5113412;28;20136;-70
2022/04/14 00:41:43;;;;;;;2.30;1.50;;;11.20;85.70;;;;;;5094579;28;20400;-71
2022/04/14 00:44:08;;;;;;;1.85;1.27;;;11.10;85.60;;;;;;5113314;28;20130;-70
2022/04/14 00:46:34;;;;;;;3.22;1.40;;;11.10;85.70;;;;;;5094767;28;20067;-71
2022/04/14 00:49:00;;;;;;;2.35;1.48;;;11.10;85.70;;;;;;5112721;28;20435;-70
2022/04/14 00:51:26;;;;;;;2.60;1.70;;;11.10;85.70;;;;;;5113138;28;20035;-70
2022/04/14 00:53:52;;;;;;;2.67;1.48;;;11.10;85.70;;;;;;5113332;28;20054;-71
2022/04/14 00:56:18;;;;;;;1.70;1.27;;;11.00;85.70;;;;;;5113421;28;20076;-70
2022/04/14 00:58:44;;;;;;;3.22;1.52;;;11.10;85.80;;;;;;5112720;28;20047;-70
2022/04/14 01:01:12;;;;;;;1.98;1.25;;;11.00;85.70;;;;;;5112685;28;20505;-70
2022/04/14 01:03:40;;;;;;;2.50;1.30;;;11.10;85.80;;;;;;5113016;28;20071;-70
2022/04/14 01:06:06;;;;;;;2.08;1.10;;;11.00;85.80;;;;;;5113056;28;20047;-70
2022/04/14 01:08:34;;;;;;;1.58;1.20;;;11.00;85.80;;;;;;5094506;28;20043;-71
2022/04/14 01:10:59;;;;;;;1.60;1.20;;;11.00;85.80;;;;;;5094485;28;20050;-70
2022/04/14 01:13:25;;;;;;;2.08;1.50;;;11.00;85.80;;;;;;5093475;28;20036;-71
2022/04/14 01:15:58;;;;;;;2.00;1.40;;;10.90;85.90;;;;;;5112559;28;20458;-71
2022/04/14 01:18:23;;;;;;;2.50;1.60;;;10.90;86.00;;;;;;5094355;28;20096;-70
2022/04/14 01:20:49;;;;;;;2.30;1.40;;;10.90;86.00;;;;;;5112867;28;20035;-70
2022/04/14 01:23:19;;;;;;;2.65;1.60;;;10.90;86.00;;;;;;5093923;28;20055;-71
2022/04/14 01:25:46;;;;;;;1.85;1.30;;;10.80;86.00;;;;;;5112470;28;20485;-70
2022/04/14 01:28:12;;;;;;;1.73;1.27;;;10.90;86.10;;;;;;5112296;28;20039;-70
2022/04/14 01:30:37;;;;;;;2.83;1.70;;;10.80;86.10;;;;;;5112387;28;20080;-71
2022/04/14 01:33:03;;;;;;;2.55;1.63;;;10.80;86.10;;;;;;5112758;28;20375;-71
2022/04/14 01:35:30;;;;;;;2.80;1.65;;;10.80;86.10;;;;;;5112653;28;20044;-70
2022/04/14 01:37:55;;;;;;;2.70;1.55;;;10.80;86.10;;;;;;5112639;28;20051;-71
2022/04/14 01:40:21;;;;;;;2.78;1.67;;;10.70;86.10;;;;;;5112430;28;20396;-70
2022/04/14 01:42:47;;;;;;;1.83;1.30;;;10.80;86.20;;;;;;5112848;28;20095;-71
2022/04/14 01:45:13;;;;;;;2.60;1.30;;;10.70;86.10;;;;;;5094287;28;20122;-71
2022/04/14 01:47:40;;;;;;;2.70;1.42;;;10.70;86.20;;;;;;5113270;28;20039;-71
2022/04/14 01:50:07;;;;;;;2.55;1.58;;;10.70;86.20;;;;;;5097557;28;20040;-71
2022/04/14 01:52:34;;;;;;;2.40;1.45;;;10.70;86.30;;;;;;5116214;28;20510;-71
2022/04/14 01:54:59;;;;;;;2.50;1.45;;;10.70;86.30;;;;;;5115808;28;20500;-70
2022/04/14 01:57:25;;;;;;;2.78;1.70;;;10.70;86.30;;;;;;5115648;28;20032;-70
2022/04/14 01:59:51;;;;;;;2.78;1.50;;;10.60;86.20;;;;;;5115670;28;20053;-70
2022/04/14 02:02:16;;;;;;;2.60;1.75;;;10.60;86.20;;;;;;5115658;28;20051;-70
2022/04/14 02:04:42;;;;;;;2.97;1.73;;;10.60;86.30;;;;;;5115561;28;20378;-71
2022/04/14 02:07:09;;;;;;;3.05;1.55;;;10.60;86.30;;;;;;5115503;28;20149;-71
2022/04/14 02:09:36;;;;;;;2.40;1.33;;;10.60;86.40;;;;;;5115331;28;20047;-71
2022/04/14 02:12:04;;;;;;;2.22;1.40;;;10.60;86.40;;;;;;5115349;28;20045;-71
2022/04/14 02:14:30;;;;;;;2.45;1.48;;;10.50;86.40;;;;;;5115083;28;20036;-71
2022/04/14 02:16:56;;;;;;;2.97;1.50;;;10.50;86.40;;;;;;5115295;28;20043;-72
2022/04/14 02:19:22;;;;;;;2.83;1.60;;;10.40;86.40;;;;;;5115292;28;20473;-71
2022/04/14 02:21:48;;;;;;;2.67;1.60;;;10.40;86.30;;;;;;5115316;28;20055;-71
2022/04/14 02:24:14;;;;;;;2.30;1.50;;;10.50;86.40;;;;;;5115547;28;20417;-71
2022/04/14 02:26:40;;;;;;;2.30;1.40;;;10.40;86.40;;;;;;5115250;28;20047;-71
2022/04/14 02:29:06;;;;;;;2.53;1.42;;;10.40;86.40;;;;;;5115262;28;20043;-71
2022/04/14 02:31:32;;;;;;;3.20;1.77;;;10.40;86.40;;;;;;5115203;28;20031;-71
2022/04/14 02:33:57;;;;;;;3.22;1.90;;;10.40;86.50;;;;;;5114878;28;20040;-70
2022/04/14 02:36:23;;;;;;;2.72;1.55;;;10.40;86.50;;;;;;5114930;28;20054;-71
2022/04/14 02:38:49;;;;;;;2.85;1.60;;;10.40;86.50;;;;;;5095906;28;20043;-71
2022/04/14 02:41:15;;;;;;;3.08;1.90;;;10.40;86.50;;;;;;5114868;28;20485;-71
2022/04/14 02:43:41;;;;;;;2.97;1.83;;;10.30;86.50;;;;;;5115376;28;20077;-72
2022/04/14 02:46:07;;;;;;;2.80;1.63;;;10.30;86.60;;;;;;5114999;28;20052;-71
2022/04/14 02:48:33;;;;;;;1.90;1.30;;;10.30;86.60;;;;;;5095416;28;20398;-72
2022/04/14 02:50:59;;;;;;;2.25;1.40;;;10.20;86.50;;;;;;5114715;28;20031;-71
2022/04/14 02:53:26;;;;;;;3.10;1.58;;;10.30;86.60;;;;;;5115312;28;20036;-72
2022/04/14 02:55:52;;;;;;;2.28;1.50;;;10.30;86.60;;;;;;5096671;28;20051;-72
2022/04/14 02:58:19;;;;;;;1.67;1.20;;;10.20;86.60;;;;;;5096167;28;20039;-71
2022/04/14 03:00:44;;;;;;;2.38;1.70;;;10.30;86.60;;;;;;5114572;28;20042;-71
2022/04/14 03:03:10;;;;;;;2.75;1.50;;;10.30;86.60;;;;;;5114654;28;20047;-71
2022/04/14 03:05:36;;;;;;;3.30;1.70;;;10.30;86.50;;;;;;5114533;28;20043;-71
2022/04/14 03:08:02;;;;;;;2.50;1.65;;;10.40;86.60;;;;;;5115028;28;20047;-71
2022/04/14 03:10:27;;;;;;;2.45;1.48;;;10.40;86.50;;;;;;5114480;28;20036;-71
2022/04/14 03:12:54;;;;;;;2.58;1.42;;;10.40;86.40;;;;;;5114921;28;20044;-72
2022/04/14 03:15:20;;;;;;;2.53;1.55;;;10.40;86.40;;;;;;5114488;28;20043;-71
2022/04/14 03:17:49;;;;;;;1.83;1.33;;;10.50;86.50;;;;;;5114322;28;20045;-71
2022/04/14 03:20:14;;;;;;;3.25;1.55;;;10.50;86.50;;;;;;5114488;28;20044;-71
2022/04/14 03:22:40;;;;;;;2.47;1.70;;;10.50;86.40;;;;;;5096035;28;20039;-70
2022/04/14 03:25:09;;;;;;;3.17;1.60;;;10.50;86.50;;;;;;5114389;28;20435;-71
2022/04/14 03:27:35;;;;;;;2.15;1.52;;;10.50;86.50;;;;;;5095996;28;20405;-71
2022/04/14 03:30:00;;;;;;;1.58;1.15;;;10.50;86.60;;;;;;5093793;28;20448;-71
2022/04/14 03:32:26;;;;;;;2.17;1.30;;;10.50;86.60;;;;;;5114154;28;20096;-71
2022/04/14 03:34:53;;;;;;;2.15;1.40;;;10.50;86.70;;;;;;5114505;28;20405;-71
2022/04/14 03:37:19;;;;;;;1.52;1.17;;;10.40;86.70;;;;;;5114663;28;20035;-71
2022/04/14 03:39:45;;;;;;;1.65;1.13;;;10.40;86.80;;;;;;5113821;28;20039;-72
2022/04/14 03:42:11;;;;;;;1.63;1.20;;;10.40;86.80;;;;;;5096634;28;20385;-71
2022/04/14 03:44:36;;;;;;;1.80;1.20;;;10.40;86.90;;;;;;5114377;28;20054;-72
2022/04/14 03:47:02;;;;;;;2.08;1.23;;;10.40;86.90;;;;;;5114341;28;20039;-71
2022/04/14 03:49:28;;;;;;;1.55;1.20;;;10.30;87.00;;;;;;5113881;28;20051;-71
2022/04/14 03:51:55;;;;;;;1.95;1.25;;;10.30;87.00;;;;;;5114227;28;20039;-71
2022/04/14 03:54:21;;;;;;;2.30;1.50;;;10.30;87.10;;;;;;5113799;28;20114;-71
2022/04/14 03:56:48;;;;;;;1.48;1.20;;;10.30;87.20;;;;;;5113888;28;20028;-72
2022/04/14 03:59:15;;;;;;;1.70;1.30;;;10.30;87.20;;;;;;5113917;28;20105;-71
2022/04/14 04:01:41;;;;;;;2.28;1.55;;;10.20;87.20;;;;;;5114273;28;20481;-72
2022/04/14 04:04:07;;;;;;;2.25;1.55;;;10.20;87.30;;;;;;5113962;28;20046;-72
2022/04/14 04:06:33;;;;;;;1.65;1.20;;;10.20;87.30;;;;;;5114329;28;20396;-71
2022/04/14 04:08:59;;;;;;;1.75;1.25;;;10.10;87.40;;;;;;5113959;28;20040;-71
2022/04/14 04:11:24;;;;;;;1.52;1.27;;;10.10;87.50;;;;;;5095832;28;20412;-72
2022/04/14 04:13:50;;;;;;;1.63;1.20;;;10.00;87.50;;;;;;5114175;28;20044;-72
2022/04/14 04:16:16;;;;;;;1.45;1.13;;;10.00;87.50;;;;;;5114346;28;20048;-71
2022/04/14 04:18:41;;;;;;;2.20;1.30;;;10.10;87.60;;;;;;5113721;28;20043;-72
2022/04/14 04:21:08;;;;;;;1.77;1.33;;;9.90;87.50;;;;;;5113576;28;20104;-71
2022/04/14 04:23:34;;;;;;;1.67;1.35;;;10.00;87.60;;;;;;5095424;28;20039;-71
2022/04/14 04:26:00;;;;;;;1.58;1.15;;;10.00;87.60;;;;;;5113942;28;20062;-72
2022/04/14 04:28:30;;;;;;;1.20;1.00;;;10.00;87.60;;;;;;5113887;28;20031;-71
2022/04/14 04:30:57;;;;;;;1.10;1.00;;;10.00;87.50;;;;;;5114118;28;20069;-71
2022/04/14 04:33:23;;;;;;;1.10;1.00;;;9.90;87.50;;;;;;5095413;28;20130;-71
2022/04/14 04:35:53;;;;;;;1.25;1.02;;;9.90;87.60;;;;;;5113834;28;20071;-71
2022/04/14 04:38:19;;;;;;;2.22;1.45;;;9.90;87.60;;;;;;5113627;28;20027;-71
2022/04/14 04:40:45;;;;;;;3.13;1.40;;;9.90;87.60;;;;;;5113457;28;20396;-71
2022/04/14 04:43:14;;;;;;;1.58;1.20;;;9.90;87.70;;;;;;5113492;28;20039;-71
2022/04/14 04:45:40;;;;;;;1.30;1.02;;;9.90;87.70;;;;;;5113170;28;20044;-71
2022/04/14 04:48:06;;;;;;;1.15;1.05;;;9.90;87.70;;;;;;5113641;28;20370;-72
2022/04/14 04:50:31;;;;;;;1.38;1.20;;;9.90;87.60;;;;;;5113544;28;20040;-72
2022/04/14 04:52:57;;;;;;;1.58;1.02;;;9.90;87.60;;;;;;5113406;28;20084;-71
2022/04/14 04:55:23;;;;;;;1.35;1.05;;;9.90;87.60;;;;;;5113177;28;20063;-71
2022/04/14 04:57:49;;;;;;;1.25;1.10;;;10.00;87.70;;;;;;5113286;28;20973;-71
2022/04/14 05:00:15;;;;;;;1.58;1.17;;;9.90;87.60;;;;;;5094924;28;20039;-71
2022/04/14 05:02:41;;;;;;;1.30;1.10;;;10.00;87.70;;;;;;5094611;28;20481;-71
2022/04/14 05:05:07;;;;;;;1.35;1.00;;;9.90;87.60;;;;;;5093977;28;20043;-71
2022/04/14 05:07:33;;;;;;;1.17;1.00;;;9.80;87.60;;;;;;5113794;28;20047;-72
2022/04/14 05:09:58;;;;;;;0.80;0.80;;;9.80;87.70;;;;;;5095637;28;20381;-71
2022/04/14 05:12:24;;;;;;;1.27;0.80;;;9.90;87.80;;;;;;5112875;28;20071;-71
2022/04/14 05:14:50;;;;;;;1.27;1.13;;;9.80;87.80;;;;;;5078645;28;20077;-71
2022/04/14 05:17:15;;;;;;;1.80;0.90;;;9.80;87.80;;;;;;5061503;28;20540;-71
2022/04/14 05:19:41;;;;;;;1.08;0.90;;;9.80;87.80;;;;;;5112689;28;20051;-70
2022/04/14 05:22:07;;;;;;;1.05;0.90;;;9.90;87.80;;;;;;5060097;28;20040;-72
2022/04/14 05:24:33;;;;;;;2.45;1.25;;;9.90;87.80;;;;;;5112873;28;20031;-71
2022/04/14 05:26:59;;;;;;;1.05;0.95;;;9.90;87.80;;;;;;5092694;28;20485;-71
2022/04/14 05:29:25;;;;;;;2.28;1.08;;;9.80;87.70;;;;;;5112357;28;20063;-71
2022/04/14 05:31:51;;;;;;;1.50;1.20;;;9.90;87.80;;;;;;5112551;28;20036;-71
2022/04/14 05:34:16;;;;;;;1.10;0.98;;;9.90;87.80;;;;;;5095018;28;20043;-71
2022/04/14 05:36:42;;;;;;;1.25;1.02;;;9.80;87.70;;;;;;5112507;28;20180;-71
2022/04/14 05:39:08;;;;;;;1.77;1.40;;;10.00;87.90;;;;;;5112504;28;20067;-71
2022/04/14 05:41:34;;;;;;;1.83;1.40;;;9.80;87.80;;;;;;5112524;28;20044;-72
2022/04/14 05:44:00;;;;;;;1.70;1.30;;;9.70;87.80;;;;;;5112301;28;20040;-71
2022/04/14 05:46:25;;;;;;;2.38;1.60;;;9.70;87.90;;;;;;5112224;28;20059;-71
2022/04/14 05:48:51;;;;;;;2.15;1.60;;;9.70;88.00;;;;;;5112304;28;20089;-71
2022/04/14 05:51:20;;;;;;;1.73;1.30;;;9.70;88.10;;;;;;5112937;28;20036;-71
2022/04/14 05:53:50;;;;;;;1.40;1.10;;;9.70;88.10;;;;;;5112339;28;20555;-71
2022/04/14 05:56:17;;;;;;;1.15;0.93;;;9.70;88.30;;;;;;5112202;28;20039;-72
2022/04/14 05:58:43;;;;;;;1.60;1.15;;;9.70;88.20;;;;;;5112657;28;20039;-71
2022/04/14 06:01:09;;;;;;;1.20;1.00;;;9.70;88.20;;;;;;5112261;28;20044;-71
2022/04/14 06:03:35;;;;;;;2.53;1.30;;;9.70;88.10;;;;;;5112366;28;20148;-71
2022/04/14 06:06:00;;;;;;;1.55;1.20;;;9.80;88.10;;;;;;5112266;28;20044;-70
2022/04/14 06:08:26;;;;;;;1.60;1.20;;;9.80;88.00;;;;;;5094564;28;20075;-69
2022/04/14 06:10:52;;;;;;;1.67;1.20;;;9.80;88.00;;;;;;5112101;28;20039;-71
2022/04/14 06:13:17;;;;;;;1.20;1.00;;;9.90;87.90;;;;;;5112328;28;20066;-71
2022/04/14 06:15:43;;;;;;;1.27;1.10;;;9.80;87.90;;;;;;5111916;28;20059;-72
2022/04/14 06:18:09;;;;;;;1.45;1.15;;;9.90;87.80;;;;;;5093653;28;20032;-71
2022/04/14 06:20:35;;;;;;;1.33;1.10;;;9.90;87.90;;;;;;5112108;28;20043;-71
2022/04/14 06:23:01;;;;;;;2.30;1.60;;;9.90;87.80;;;;;;5111753;28;20054;-70
2022/04/14 06:25:26;;;;;;;2.95;1.70;;;10.00;87.90;;;;;;5111803;28;20040;-71
2022/04/14 06:27:53;;;;;;;1.92;1.25;;;10.10;87.80;;;;;;5093882;28;20118;-71
2022/04/14 06:30:20;;;;;;;2.15;1.50;;;10.10;87.80;;;;;;5111791;28;20057;-71
2022/04/14 06:33:03;;;;;;;1.42;1.13;;;10.10;87.70;;;;;;5093670;28;20043;-74
2022/04/14 06:35:29;;;;;;;1.98;1.35;;;10.10;87.80;;;;;;5114815;28;20092;-72
2022/04/14 06:37:55;;;;;;;1.60;1.25;;;10.10;87.80;;;;;;5115570;28;20040;-75
2022/04/14 06:40:21;;;;;;;1.45;1.20;;;10.10;87.80;;;;;;5097318;28;20143;-74
2022/04/14 06:42:48;;;;;;;1.77;1.33;;;10.10;87.80;;;;;;5080543;28;20066;-75
2022/04/14 06:45:15;;;;;;;2.30;1.20;;;10.20;87.70;;;;;;5080277;28;20067;-75
2022/04/14 06:47:41;;;;;;;1.90;1.20;;;10.30;87.70;;;;;;5115700;28;20044;-75
2022/04/14 06:50:23;;;;;;;2.38;1.50;;;10.30;87.70;;;;;;5096654;28;20108;-74
2022/04/14 06:52:51;;;;;;;2.05;1.30;;;10.30;87.60;;;;;;5095916;28;20032;-76
2022/04/14 06:55:21;;;;;;;2.63;1.50;;;10.50;87.60;;;;;;5081098;28;20032;-76
2022/04/14 06:57:50;;;;;;;1.90;1.40;;;10.60;87.40;;;;;;5037436;28;20124;-76
2022/04/14 07:00:21;;;;;;;1.75;1.30;;;10.60;87.30;;;;;;5005308;28;20048;-76
2022/04/14 07:03:00;;;;;;;2.25;1.30;;;10.80;87.30;;;;;;5016913;28;20095;-77
2022/04/14 07:05:26;;;;;;;3.22;1.65;;;10.80;87.20;;;;;;4987652;28;20509;-77
2022/04/14 07:07:54;;;;;;;2.10;1.42;;;10.80;87.10;;;;;;4973612;28;20050;-76
2022/04/14 07:10:20;;;;;;;2.80;1.60;;;10.90;87.10;;;;;;4988992;28;20050;-76
2022/04/14 07:12:46;;;;;;;2.88;1.60;;;10.90;86.90;;;;;;4972078;28;20043;-75
2022/04/14 07:15:13;;;;;;;3.50;2.00;;;11.10;87.00;;;;;;4977738;28;20047;-75
2022/04/14 07:17:39;;;;;;;3.90;2.20;;;11.20;86.70;;;;;;4980090;28;20043;-76
2022/04/14 07:20:46;;;;;;;3.60;2.15;;;11.30;86.70;;;;;;4941456;29;20493;-76
2022/04/14 07:23:12;;;;;;;2.50;1.80;;;11.40;86.50;;;;;;4937346;29;20051;-75
2022/04/14 07:25:41;;;;;;;2.22;1.75;;;11.50;86.40;;;;;;4953410;29;20054;-75
2022/04/14 07:28:07;;;;;;;3.13;1.73;;;11.50;86.40;;;;;;4970511;28;20089;-75
2022/04/14 07:30:33;;;;;;;3.63;2.08;;;11.60;86.60;;;;;;4956994;28;20429;-74
2022/04/14 07:33:00;;;;;;;3.63;2.10;;;11.60;86.60;;;;;;4958189;28;20505;-73
2022/04/14 07:35:26;;;;;;;3.78;2.33;;;11.50;86.50;;;;;;4945796;28;20046;-74
2022/04/14 07:37:52;;;;;;;3.22;1.98;;;11.70;86.80;;;;;;5015904;28;20049;-74
2022/04/14 07:40:19;;;;;;;3.13;2.13;;;11.60;86.80;;;;;;4998951;28;20037;-74
2022/04/14 07:42:47;;;;;;;3.65;1.73;;;11.70;86.80;;;;;;5013131;28;20136;-73
2022/04/14 07:45:15;;;;;;;3.72;2.30;;;11.70;86.70;;;;;;5012122;28;20049;-73
2022/04/14 07:47:47;;;;;;;2.97;1.92;;;11.80;86.70;;;;;;5012735;28;20073;-74
2022/04/14 07:50:15;;;;;;;3.38;2.00;;;12.00;86.60;;;;;;5021618;28;20089;-75
2022/04/14 07:52:55;;;;;;;3.42;2.00;;;12.10;86.40;;;;;;5045250;28;20043;-75
2022/04/14 07:55:29;;;;;;;3.00;1.80;;;12.20;86.30;;;;;;5095290;28;20079;-76
2022/04/14 07:57:57;;;;;;;2.15;1.60;;;12.40;86.20;;;;;;5079590;28;20036;-75
2022/04/14 08:00:24;;;;;;;3.10;1.80;;;12.50;86.00;;;;;;5083827;28;20496;-74
2022/04/14 08:02:53;;;;;;;2.45;1.60;;;12.60;85.80;;;;;;5071324;28;20036;-74
2022/04/14 08:05:22;;;;;;;2.58;1.60;;;12.80;85.70;;;;;;5101200;28;20036;-74
2022/04/14 08:08:00;;;;;;;4.03;2.30;;;12.90;85.60;;;;;;5119432;28;20393;-75
2022/04/14 08:10:26;;;;;;;4.32;2.10;;;13.10;85.50;;;;;;5120441;28;20044;-75
2022/04/14 08:12:53;;;;;;;3.50;2.30;;;13.30;85.30;;;;;;5121172;28;20408;-74
2022/04/14 08:15:21;;;;;;;2.80;1.85;;;13.30;85.10;;;;;;5116637;28;20070;-74
2022/04/14 08:17:48;;;;;;;4.35;2.40;;;13.50;85.00;;;;;;5095481;28;20040;-73
2022/04/14 08:20:15;;;;;;;3.42;1.98;;;13.70;84.80;;;;;;5113635;28;20089;-72
2022/04/14 08:22:47;;;;;;;2.92;2.00;;;13.80;84.60;;;;;;5113601;28;20477;-72
2022/04/14 08:25:16;;;;;;;3.17;1.95;;;14.10;84.50;;;;;;5113759;28;20039;-73
2022/04/14 08:27:47;;;;;;;2.75;1.85;;;14.20;84.30;;;;;;5095276;28;20043;-72
2022/04/14 08:30:14;;;;;;;4.25;2.22;;;14.40;83.90;;;;;;5063689;28;20079;-72
2022/04/14 08:32:41;;;;;;;2.85;1.88;;;14.60;83.70;;;;;;5096819;28;20473;-73
2022/04/14 08:35:08;;;;;;;4.10;2.63;;;14.70;83.50;;;;;;5113604;28;20092;-73
2022/04/14 08:37:34;;;;;;;2.30;1.73;;;14.70;83.40;;;;;;5093471;28;20028;-73
2022/04/14 08:40:00;;;;;;;2.72;1.95;;;14.70;83.30;;;;;;5061621;28;20054;-74
2022/04/14 08:42:32;;;;;;;3.25;1.92;;;14.80;83.40;;;;;;5078340;28;20482;-73
2022/04/14 08:45:03;;;;;;;2.97;1.80;;;14.90;83.50;;;;;;5114715;28;20036;-74
2022/04/14 08:47:34;;;;;;;2.80;1.80;;;15.10;83.30;;;;;;5095312;28;20044;-73
2022/04/14 08:50:00;;;;;;;2.47;1.80;;;15.20;83.20;;;;;;5094951;28;20050;-73
2022/04/14 08:52:27;;;;;;;2.08;1.52;;;15.30;82.90;;;;;;5095029;28;20040;-73
2022/04/14 08:54:55;;;;;;;3.50;1.77;;;15.40;82.70;;;;;;5078155;28;20031;-73
2022/04/14 08:57:23;;;;;;;2.95;1.83;;;15.50;82.60;;;;;;5094873;28;20035;-73
2022/04/14 08:59:50;;;;;;;3.33;1.70;;;15.60;82.60;;;;;;5113028;28;20565;-73
2022/04/14 09:02:19;;;;;;;1.95;1.40;;;15.60;82.50;;;;;;5096364;28;20058;-74
2022/04/14 09:04:45;;;;;;;2.65;1.63;;;15.60;82.50;;;;;;5113908;28;20168;-74
2022/04/14 09:07:12;;;;;;;2.50;1.52;;;15.60;82.70;;;;;;5113886;28;20060;-72
2022/04/14 09:09:41;;;;;;;2.72;1.52;;;15.50;82.60;;;;;;5095112;28;20047;-72
2022/04/14 09:12:07;;;;;;;2.47;1.48;;;15.80;82.80;;;;;;5113939;28;20036;-73
2022/04/14 09:14:34;;;;;;;2.55;1.88;;;15.90;83.20;;;;;;5078617;28;20035;-73
2022/04/14 09:17:02;;;;;;;2.38;1.58;;;16.00;82.30;;;;;;5113242;28;20552;-72
2022/04/14 09:19:31;;;;;;;2.85;1.80;;;16.10;82.10;;;;;;5114966;28;20039;-74
2022/04/14 09:22:04;;;;;;;2.67;1.70;;;16.10;82.00;;;;;;5098379;28;20032;-74
2022/04/14 09:24:45;;;;;;;3.08;1.98;;;16.30;81.90;;;;;;5093876;28;20066;-73
2022/04/14 09:27:26;;;;;;;3.25;1.80;;;16.40;81.70;;;;;;5111622;28;20168;-73
2022/04/14 09:29:53;;;;;;;2.35;1.50;;;16.50;81.40;;;;;;5116380;28;20032;-74
2022/04/14 09:32:30;;;;;;;4.15;1.95;;;16.60;81.20;;;;;;5113161;28;20104;-73
2022/04/14 09:34:57;;;;;;;2.45;1.80;;;16.60;81.10;;;;;;5115409;28;20039;-74
2022/04/14 09:37:24;;;;;;;3.72;1.85;;;16.60;81.10;;;;;;5118478;28;20035;-74
2022/04/14 09:40:00;;;;;;;3.13;1.80;;;16.70;81.20;;;;;;5099791;28;20047;-74
2022/04/14 09:42:29;;;;;;;2.42;1.70;;;16.70;81.20;;;;;;5100221;28;20046;-75
2022/04/14 09:44:55;;;;;;;4.32;1.88;;;16.80;81.10;;;;;;5119055;28;20071;-74
2022/04/14 09:47:36;;;;;;;3.05;1.50;;;16.90;81.00;;;;;;5079573;28;20036;-72
2022/04/14 09:50:03;;;;;;;2.33;1.55;;;16.90;80.70;;;;;;5097763;28;20116;-74
2022/04/14 09:52:28;;;;;;;2.40;1.40;;;17.00;80.60;;;;;;5080775;28;20032;-75
2022/04/14 09:55:07;;;;;;;3.20;1.60;;;17.00;80.60;;;;;;5114877;28;20126;-75
2022/04/14 09:57:33;;;;;;;1.80;1.42;;;17.10;80.40;;;;;;5103759;28;20038;-74
2022/04/14 09:59:59;;;;;;;2.33;1.45;;;17.20;80.30;;;;;;5124841;28;20031;-75
2022/04/14 10:02:26;;;;;;;2.63;1.38;;;17.20;80.10;;;;;;5127644;28;20066;-75
2022/04/14 10:04:52;;;;;;;1.88;1.20;;;17.30;80.00;;;;;;5115917;28;20035;-72
2022/04/14 10:07:20;;;;;;;1.48;1.23;;;17.30;79.90;;;;;;5112829;28;20066;-73
2022/04/14 10:09:48;;;;;;;2.50;1.40;;;17.30;79.90;;;;;;5096131;28;20093;-72
2022/04/14 10:12:27;;;;;;;2.50;1.58;;;17.40;79.90;;;;;;5095445;28;20092;-73
2022/04/14 10:15:02;;;;;;;4.45;1.67;;;17.40;79.60;;;;;;5114783;28;20088;-72
2022/04/14 10:17:30;;;;;;;2.20;1.42;;;17.50;79.50;;;;;;5097660;28;20035;-73
2022/04/14 10:19:56;;;;;;;2.30;1.30;;;17.60;79.20;;;;;;5064403;28;20050;-72
2022/04/14 10:22:23;;;;;;;1.70;1.23;;;17.70;79.10;;;;;;5080302;28;20032;-73
2022/04/14 10:24:53;;;;;;;3.05;1.60;;;17.70;79.10;;;;;;5097607;28;20096;-73
2022/04/14 10:27:19;;;;;;;2.33;1.52;;;17.70;78.90;;;;;;5035902;28;20064;-75
2022/04/14 10:29:47;;;;;;;2.20;1.45;;;17.90;78.60;;;;;;5053905;28;20044;-73
2022/04/14 10:32:14;;;;;;;2.80;1.80;;;17.90;78.40;;;;;;5003521;28;20041;-73
2022/04/14 10:34:41;;;;;;;2.63;1.60;;;17.90;78.20;;;;;;5036025;28;20537;-73
2022/04/14 10:37:08;;;;;;;3.35;1.73;;;17.90;78.10;;;;;;5036586;28;20041;-72
2022/04/14 10:39:41;;;;;;;2.53;1.65;;;18.00;78.00;;;;;;5035894;28;20132;-72
2022/04/14 10:42:09;;;;;;;4.00;1.60;;;18.10;77.90;;;;;;5020158;28;20464;-71
2022/04/14 10:44:48;;;;;;;3.42;1.92;;;18.10;77.80;;;;;;5035718;28;20395;-73
2022/04/14 10:47:47;;;;;;;2.17;1.60;;;18.00;77.50;;;;;;5053014;28;20052;-72
2022/04/14 10:50:28;;;;;;;2.58;1.60;;;18.10;77.70;;;;;;5038498;28;20526;-73
2022/04/14 10:53:06;;;;;;;3.13;1.85;;;18.20;77.30;;;;;;5052412;28;20461;-73
2022/04/14 10:55:43;;;;;;;2.63;1.50;;;18.20;77.10;;;;;;5035732;28;20068;-73
2022/04/14 10:58:39;;;;;;;1.40;1.17;;;18.30;77.00;;;;;;5079292;28;20040;-73
2022/04/14 11:01:06;;;;;;;1.60;1.23;;;18.40;76.60;;;;;;5097913;28;20153;-73
2022/04/14 11:03:52;;;;;;;2.10;1.50;;;18.30;76.60;;;;;;5115390;28;20350;-72
2022/04/14 11:06:47;;;;;;;2.05;1.17;;;18.40;76.60;;;;;;5096725;28;20042;-72
2022/04/14 11:09:49;;;;;;;2.67;1.38;;;18.40;76.60;;;;;;5114351;28;20066;-73
2022/04/14 11:12:21;;;;;;;1.92;1.30;;;18.40;76.40;;;;;;5114513;28;20112;-73
2022/04/14 11:14:50;;;;;;;2.67;1.50;;;18.60;76.40;;;;;;5114866;28;20043;-73
2022/04/14 11:17:48;;;;;;;2.05;1.50;;;18.70;76.10;;;;;;5114630;28;20044;-72
2022/04/14 11:20:37;;;;;;;2.38;1.45;;;18.80;75.80;;;;;;5112574;28;20036;-72
2022/04/14 11:23:11;;;;;;;1.98;1.25;;;18.90;75.50;;;;;;5085869;28;20036;-71
2022/04/14 11:26:01;;;;;;;3.20;1.30;;;19.00;75.10;;;;;;5114625;28;20050;-70
2022/04/14 11:28:30;;;;;;;2.03;1.42;;;19.00;75.00;;;;;;5113015;28;20489;-72
2022/04/14 11:30:59;;;;;;;1.88;1.35;;;19.20;75.00;;;;;;5114513;28;20048;-70
2022/04/14 11:33:36;;;;;;;2.60;1.33;;;19.20;74.80;;;;;;5062729;28;20035;-71
2022/04/14 11:36:16;;;;;;;1.90;1.30;;;19.30;74.30;;;;;;5096253;28;20039;-71
2022/04/14 11:39:01;;;;;;;1.20;1.00;;;19.40;74.20;;;;;;5079098;28;20039;-71
2022/04/14 11:41:50;;;;;;;2.10;1.10;;;19.50;74.00;;;;;;5094612;28;20089;-71
2022/04/14 11:44:32;;;;;;;2.35;1.10;;;19.70;73.90;;;;;;5095694;28;20047;-72
2022/04/14 11:47:24;;;;;;;1.73;1.08;;;19.60;73.70;;;;;;5096030;28;20048;-72
2022/04/14 11:49:58;;;;;;;2.08;1.10;;;19.70;73.70;;;;;;5084560;28;20093;-71
2022/04/14 11:52:26;;;;;;;2.42;1.20;;;19.80;73.40;;;;;;5095629;28;20065;-70
2022/04/14 11:55:00;;;;;;;2.15;1.20;;;19.80;73.10;;;;;;5096417;28;20058;-72
2022/04/14 11:57:31;;;;;;;1.73;1.20;;;19.70;73.20;;;;;;5061991;28;20040;-71
2022/04/14 12:00:12;;;;;;;;;;;19.70;73.30;;;;;;5079604;28;20071;-71
2022/04/14 12:02:49;;;;;;;;;;;20.00;73.40;;;;;;5078934;28;19911;-71
2022/04/14 12:05:22;;;;;;;2.63;0.90;;;20.10;73.00;;;;;;5093921;28;19908;-72
2022/04/14 12:08:04;;;;;;;0.82;0.80;;;20.10;72.20;;;;;;5095518;28;20035;-72
2022/04/14 12:10:37;;;;;;;1.20;0.70;;;20.30;72.20;;;;;;5054967;28;20048;-71
2022/04/14 12:13:10;;;;;;;1.35;0.80;;;20.40;71.70;;;;;;5037629;28;20037;-69
2022/04/14 12:15:37;;;;;;;1.98;0.82;;;20.50;71.30;;;;;;5054156;28;20075;-71
2022/04/14 12:18:08;;;;;;;1.60;0.80;;;20.50;71.10;;;;;;5037492;28;20032;-69
2022/04/14 12:20:36;;;;;;;1.60;0.93;;;20.50;71.30;;;;;;5054093;28;20125;-70
2022/04/14 12:23:03;;;;;;;1.95;0.90;;;20.30;71.30;;;;;;5070733;28;20181;-71
2022/04/14 12:25:30;;;;;;;0.95;0.80;;;20.10;71.60;;;;;;5070947;28;20059;-70
2022/04/14 12:27:55;;;;;;;1.27;0.73;;;19.90;71.90;;;;;;5070699;28;20060;-70
2022/04/14 12:30:22;;;;;;;1.63;0.85;;;19.70;72.40;;;;;;5053621;28;20047;-71
2022/04/14 12:32:48;;;;;;;1.05;0.70;;;19.50;72.70;;;;;;5070685;28;20099;-70
2022/04/14 12:35:29;;;;;;;0.63;0.52;;;19.30;73.00;;;;;;5071046;28;20040;-72
2022/04/14 12:38:09;;;;;;;0.60;0.60;;;19.20;73.00;;;;;;5070421;28;20041;-72
2022/04/14 12:40:35;;;;;;;1.20;0.70;;;19.00;73.20;;;;;;5042686;28;20494;-72
2022/04/14 12:43:04;;;;;;;1.08;0.70;;;18.90;73.50;;;;;;5094722;28;20054;-72
2022/04/14 12:45:37;;;;;;;1.33;0.80;;;18.80;73.50;;;;;;5077742;28;20108;-72
2022/04/14 12:48:05;;;;;;;1.13;0.70;;;18.80;73.60;;;;;;5077555;28;20074;-71
2022/04/14 12:50:31;;;;;;;1.70;1.10;;;18.70;73.60;;;;;;5112940;28;20052;-69
2022/04/14 12:52:58;;;;;;;0.93;0.88;;;18.70;73.70;;;;;;5112717;28;20040;-71
2022/04/14 12:55:26;;;;;;;1.85;1.00;;;18.70;73.60;;;;;;5094504;28;20036;-71